Time;durP1;ratioP1;P1;durP2;ratioP2;P2;SDS_P1;SDS_P2;PMS_P1;PMS_P2;Temp;Humidity;BMP_temperature;BMP_pressure;BME280_temperature;BME280_humidity;BME280_pressure;Samples;Min_cycle;Max_cycle;Signal;HPM_P1;HPM_P2
2022/03/13 00:00:26;;;;;;;23.00;13.00;;;8.10;99.90;;;;;;5064260;28;20048;-76
2022/03/13 00:02:55;;;;;;;21.00;11.57;;;8.00;99.90;;;;;;5048328;28;20064;-75
2022/03/13 00:05:21;;;;;;;29.02;12.75;;;8.00;99.90;;;;;;5068455;28;20135;-76
2022/03/13 00:07:48;;;;;;;21.67;11.43;;;8.00;99.90;;;;;;5068862;28;20091;-76
2022/03/13 00:10:16;;;;;;;;;;;8.00;99.90;;;;;;5064608;28;20051;-76
2022/03/13 00:12:42;;;;;;;22.88;10.93;;;8.00;99.90;;;;;;5055536;28;19920;-76
2022/03/13 00:15:11;;;;;;;21.70;12.43;;;7.90;99.90;;;;;;5052798;28;20048;-76
2022/03/13 00:17:36;;;;;;;22.70;11.75;;;7.90;99.90;;;;;;5033257;28;20055;-76
2022/03/13 00:20:05;;;;;;;20.40;11.23;;;7.80;99.90;;;;;;5064873;28;20048;-76
2022/03/13 00:22:32;;;;;;;19.60;11.35;;;7.80;99.90;;;;;;5032176;28;20041;-75
2022/03/13 00:25:06;;;;;;;24.50;12.90;;;7.80;99.90;;;;;;5034352;28;20533;-78
2022/03/13 00:27:34;;;;;;;22.27;11.88;;;7.80;99.90;;;;;;5048822;28;20136;-76
2022/03/13 00:30:01;;;;;;;25.23;12.82;;;7.70;99.90;;;;;;5048613;28;20506;-77
2022/03/13 00:32:27;;;;;;;21.58;12.02;;;7.70;99.90;;;;;;5016588;28;20045;-76
2022/03/13 00:34:53;;;;;;;22.17;12.10;;;7.70;99.90;;;;;;5066103;28;20493;-76
2022/03/13 00:37:19;;;;;;;24.17;12.10;;;7.60;99.90;;;;;;5048731;28;20052;-76
2022/03/13 00:39:47;;;;;;;24.00;12.57;;;7.60;99.90;;;;;;5047788;28;20059;-76
2022/03/13 00:42:13;;;;;;;22.67;12.05;;;7.60;99.90;;;;;;5046449;28;20045;-76
2022/03/13 00:44:39;;;;;;;22.58;12.57;;;7.50;99.90;;;;;;5049548;28;20049;-76
2022/03/13 00:47:06;;;;;;;22.58;12.77;;;7.60;99.90;;;;;;5031168;28;20095;-76
2022/03/13 00:49:32;;;;;;;25.38;13.27;;;7.60;99.90;;;;;;5048742;28;20063;-76
2022/03/13 00:52:04;;;;;;;24.15;13.25;;;7.50;99.90;;;;;;5032482;28;20086;-76
2022/03/13 00:54:30;;;;;;;21.85;12.20;;;7.50;99.90;;;;;;5056115;28;20152;-76
2022/03/13 00:56:56;;;;;;;25.58;13.25;;;7.50;99.90;;;;;;5043860;28;20426;-76
2022/03/13 00:59:22;;;;;;;21.75;12.80;;;7.50;99.90;;;;;;5031916;28;20572;-76
2022/03/13 01:01:48;;;;;;;27.40;13.15;;;7.40;99.90;;;;;;5048214;28;20079;-76
2022/03/13 01:04:14;;;;;;;23.38;13.00;;;7.40;99.90;;;;;;5048562;28;20092;-76
2022/03/13 01:06:41;;;;;;;27.85;13.32;;;7.40;99.90;;;;;;5048675;28;20045;-76
2022/03/13 01:09:07;;;;;;;24.48;12.95;;;7.40;99.90;;;;;;5048289;28;20074;-75
2022/03/13 01:11:33;;;;;;;22.52;13.10;;;7.30;99.90;;;;;;5048636;28;20060;-76
2022/03/13 01:13:59;;;;;;;23.77;12.68;;;7.30;99.90;;;;;;5032101;28;20127;-76
2022/03/13 01:16:27;;;;;;;26.38;12.80;;;7.20;99.90;;;;;;5036770;28;20072;-76
2022/03/13 01:18:58;;;;;;;27.15;12.57;;;7.30;99.90;;;;;;5051224;28;20063;-76
2022/03/13 01:21:28;;;;;;;21.40;11.75;;;7.30;99.90;;;;;;5059958;28;20079;-76
2022/03/13 01:24:14;;;;;;;23.80;11.90;;;7.20;99.90;;;;;;5030169;28;20072;-76
2022/03/13 01:26:41;;;;;;;26.08;12.43;;;7.20;99.90;;;;;;5030737;28;20057;-76
2022/03/13 01:29:14;;;;;;;20.80;12.10;;;7.50;99.90;;;;;;5048289;28;20087;-76
2022/03/13 01:31:46;;;;;;;22.50;12.63;;;7.20;99.90;;;;;;5057717;28;20087;-76
2022/03/13 01:34:13;;;;;;;24.05;13.07;;;7.30;99.90;;;;;;5068284;28;20059;-76
2022/03/13 01:36:39;;;;;;;23.33;12.48;;;7.30;99.90;;;;;;5068662;28;20049;-76
2022/03/13 01:39:06;;;;;;;23.25;13.02;;;7.30;99.90;;;;;;5067044;28;20049;-77
2022/03/13 01:41:34;;;;;;;24.88;11.60;;;7.30;99.90;;;;;;5067157;28;20048;-76
2022/03/13 01:44:01;;;;;;;22.95;12.15;;;7.30;99.90;;;;;;5052614;28;20048;-76
2022/03/13 01:46:27;;;;;;;22.92;12.05;;;7.30;99.90;;;;;;5051350;28;20048;-76
2022/03/13 01:48:56;;;;;;;29.42;12.32;;;7.30;99.90;;;;;;5068840;28;20099;-76
2022/03/13 01:51:24;;;;;;;22.33;12.88;;;7.30;99.90;;;;;;5032023;28;20051;-76
2022/03/13 01:53:55;;;;;;;21.80;12.60;;;7.30;99.90;;;;;;5048488;28;20585;-76
2022/03/13 01:56:22;;;;;;;28.55;12.80;;;7.30;99.90;;;;;;5048155;28;20673;-76
2022/03/13 01:58:55;;;;;;;23.90;11.68;;;7.30;99.90;;;;;;5048236;28;20048;-75
2022/03/13 02:01:24;;;;;;;25.23;13.35;;;7.30;99.90;;;;;;5045087;28;20505;-76
2022/03/13 02:03:49;;;;;;;21.55;12.77;;;7.30;99.90;;;;;;5037683;28;20110;-76
2022/03/13 02:06:16;;;;;;;21.92;12.05;;;7.30;99.90;;;;;;5055063;28;20056;-75
2022/03/13 02:08:44;;;;;;;21.10;12.02;;;7.20;99.90;;;;;;5053883;28;20056;-76
2022/03/13 02:11:14;;;;;;;24.58;12.18;;;7.20;99.90;;;;;;5051904;28;20079;-76
2022/03/13 02:13:39;;;;;;;21.85;11.80;;;7.10;99.90;;;;;;5051156;28;20049;-76
2022/03/13 02:16:06;;;;;;;26.67;13.38;;;7.10;99.90;;;;;;5051744;28;20098;-78
2022/03/13 02:18:32;;;;;;;23.02;12.18;;;7.10;99.90;;;;;;5052303;28;20052;-76
2022/03/13 02:20:58;;;;;;;22.63;13.23;;;7.10;99.90;;;;;;5051973;28;20041;-76
2022/03/13 02:23:26;;;;;;;22.02;12.77;;;7.00;99.90;;;;;;5055063;28;20044;-77
2022/03/13 02:25:56;;;;;;;23.83;12.57;;;7.10;99.90;;;;;;5064955;28;20061;-76
2022/03/13 02:28:27;;;;;;;25.02;12.48;;;7.00;99.90;;;;;;5050812;28;20059;-76
2022/03/13 02:30:58;;;;;;;24.30;12.95;;;7.00;99.90;;;;;;5051684;28;20081;-76
2022/03/13 02:33:24;;;;;;;24.80;12.88;;;7.00;99.90;;;;;;5051215;28;20044;-76
2022/03/13 02:35:56;;;;;;;;;;;7.10;99.90;;;;;;5051822;28;20045;-76
2022/03/13 02:38:23;;;;;;;23.42;12.60;;;6.90;99.90;;;;;;5067971;28;19927;-76
2022/03/13 02:40:49;;;;;;;22.80;11.45;;;6.90;99.90;;;;;;5055327;28;20431;-76
2022/03/13 02:43:16;;;;;;;27.13;13.73;;;6.90;99.90;;;;;;5051990;28;20120;-76
2022/03/13 02:45:42;;;;;;;24.27;12.35;;;6.80;99.90;;;;;;5041090;28;20036;-76
2022/03/13 02:48:09;;;;;;;;;;;6.80;99.90;;;;;;5052163;28;20052;-78
2022/03/13 02:50:35;;;;;;;25.20;12.17;;;6.80;99.90;;;;;;5051449;28;19928;-76
2022/03/13 02:53:01;;;;;;;25.75;12.05;;;6.80;99.90;;;;;;5034370;28;20055;-76
2022/03/13 02:55:27;;;;;;;26.65;13.20;;;6.70;99.90;;;;;;5034665;28;20144;-76
2022/03/13 02:57:53;;;;;;;24.30;13.45;;;6.60;99.90;;;;;;5050759;28;20140;-76
2022/03/13 03:00:21;;;;;;;24.15;13.40;;;6.60;99.90;;;;;;5033832;28;20130;-76
2022/03/13 03:02:48;;;;;;;27.55;13.52;;;6.60;99.90;;;;;;5033902;28;20479;-76
2022/03/13 03:05:14;;;;;;;23.67;12.65;;;6.50;99.90;;;;;;5050174;28;20044;-76
2022/03/13 03:07:41;;;;;;;26.52;12.95;;;6.50;99.90;;;;;;5050407;28;20115;-76
2022/03/13 03:10:14;;;;;;;;;;;6.40;99.90;;;;;;5050352;28;20041;-76
2022/03/13 03:12:40;;;;;;;24.02;13.05;;;6.40;99.90;;;;;;5062864;28;19928;-76
2022/03/13 03:15:06;;;;;;;25.55;14.05;;;6.50;99.90;;;;;;5054094;28;20048;-76
2022/03/13 03:17:32;;;;;;;24.73;12.70;;;6.30;99.90;;;;;;5070319;28;20130;-76
2022/03/13 03:19:57;;;;;;;24.42;13.32;;;6.20;99.90;;;;;;5066899;28;20053;-76
2022/03/13 03:22:23;;;;;;;22.02;12.65;;;6.20;99.90;;;;;;5033635;28;20045;-76
2022/03/13 03:24:49;;;;;;;25.92;12.93;;;6.10;99.90;;;;;;5017469;28;20040;-76
2022/03/13 03:27:18;;;;;;;26.55;13.65;;;6.20;99.90;;;;;;5033163;28;20076;-78
2022/03/13 03:29:43;;;;;;;23.58;12.68;;;6.20;99.90;;;;;;5034666;28;20049;-76
2022/03/13 03:32:09;;;;;;;26.45;13.38;;;6.10;99.90;;;;;;5053532;28;20059;-76
2022/03/13 03:34:35;;;;;;;25.35;12.25;;;6.10;99.90;;;;;;5065835;28;20679;-77
2022/03/13 03:37:02;;;;;;;22.92;11.93;;;6.10;99.90;;;;;;5050605;28;20049;-76
2022/03/13 03:39:30;;;;;;;23.67;12.38;;;6.10;99.90;;;;;;5049913;28;20497;-76
2022/03/13 03:41:56;;;;;;;25.00;12.05;;;6.00;99.90;;;;;;5062479;28;20049;-76
2022/03/13 03:44:23;;;;;;;23.75;12.80;;;6.40;99.90;;;;;;5036896;28;20068;-76
2022/03/13 03:46:49;;;;;;;23.60;12.48;;;6.00;99.90;;;;;;5037107;28;20052;-76
2022/03/13 03:49:15;;;;;;;24.20;12.10;;;6.00;99.90;;;;;;5070037;28;20048;-78
2022/03/13 03:51:42;;;;;;;;;;;6.10;99.90;;;;;;5062995;28;20076;-76
2022/03/13 03:54:08;;;;;;;23.13;11.77;;;5.90;99.90;;;;;;5060549;28;19936;-76
2022/03/13 03:56:34;;;;;;;23.40;12.18;;;6.00;99.90;;;;;;5055444;28;20398;-76
2022/03/13 03:59:00;;;;;;;24.23;11.75;;;5.90;99.90;;;;;;5050393;28;20045;-76
2022/03/13 04:01:28;;;;;;;25.77;12.32;;;5.80;99.90;;;;;;5048737;28;20551;-76
2022/03/13 04:03:54;;;;;;;23.02;12.15;;;5.80;99.90;;;;;;5033362;28;20140;-76
2022/03/13 04:06:20;;;;;;;25.65;13.55;;;5.80;99.90;;;;;;5049556;28;20183;-76
2022/03/13 04:08:47;;;;;;;25.02;12.13;;;6.10;99.90;;;;;;5049601;28;20435;-76
2022/03/13 04:11:13;;;;;;;26.02;13.20;;;5.70;99.90;;;;;;5049844;28;20506;-76
2022/03/13 04:13:39;;;;;;;27.02;13.70;;;5.70;99.90;;;;;;5048515;28;20048;-76
2022/03/13 04:16:07;;;;;;;28.60;12.27;;;5.70;99.90;;;;;;5049378;28;20130;-76
2022/03/13 04:18:36;;;;;;;23.40;12.68;;;5.70;99.90;;;;;;5033235;28;20045;-76
2022/03/13 04:21:04;;;;;;;24.08;12.02;;;5.60;99.90;;;;;;5049830;28;20045;-76
2022/03/13 04:23:31;;;;;;;22.58;12.57;;;5.60;99.90;;;;;;5052957;28;20053;-76
2022/03/13 04:25:56;;;;;;;22.95;11.77;;;6.20;99.90;;;;;;5053357;28;20056;-76
2022/03/13 04:28:22;;;;;;;24.10;12.23;;;5.60;99.90;;;;;;5035053;28;20048;-76
2022/03/13 04:30:52;;;;;;;23.83;12.68;;;5.70;99.90;;;;;;5052548;28;20052;-76
2022/03/13 04:33:19;;;;;;;22.23;11.68;;;5.50;99.90;;;;;;5067320;28;20057;-78
2022/03/13 04:35:45;;;;;;;27.42;12.32;;;5.50;99.90;;;;;;5033116;28;20110;-76
2022/03/13 04:38:11;;;;;;;26.13;12.23;;;6.20;99.90;;;;;;5055708;28;20091;-76
2022/03/13 04:40:37;;;;;;;21.65;11.50;;;5.40;99.90;;;;;;4999843;28;20073;-76
2022/03/13 04:43:03;;;;;;;21.35;12.13;;;5.40;99.90;;;;;;5033537;28;20049;-76
2022/03/13 04:45:29;;;;;;;22.92;11.32;;;5.60;99.90;;;;;;5052145;28;20693;-76
2022/03/13 04:47:55;;;;;;;20.90;11.50;;;5.30;99.90;;;;;;5044979;28;20067;-76
2022/03/13 04:50:21;;;;;;;24.55;12.48;;;5.30;99.90;;;;;;5049140;28;20131;-78
2022/03/13 04:52:47;;;;;;;23.33;12.48;;;5.30;99.90;;;;;;5048739;28;20053;-76
2022/03/13 04:55:13;;;;;;;24.48;11.60;;;5.20;99.90;;;;;;5049540;28;20126;-76
2022/03/13 04:57:38;;;;;;;23.30;12.35;;;5.10;99.90;;;;;;5035505;28;20561;-76
2022/03/13 05:00:05;;;;;;;26.42;12.27;;;5.10;99.90;;;;;;5066698;28;20045;-76
2022/03/13 05:02:31;;;;;;;26.60;12.25;;;5.10;99.90;;;;;;5068298;28;20048;-76
2022/03/13 05:04:59;;;;;;;24.95;12.18;;;5.10;99.90;;;;;;5069566;28;20504;-76
2022/03/13 05:07:27;;;;;;;23.27;12.82;;;5.40;99.90;;;;;;5053092;28;20071;-77
2022/03/13 05:09:53;;;;;;;29.73;12.75;;;4.90;99.90;;;;;;5048771;28;20127;-76
2022/03/13 05:12:27;;;;;;;24.60;13.20;;;4.90;99.90;;;;;;5031682;28;20563;-76
2022/03/13 05:14:53;;;;;;;25.58;13.15;;;4.70;99.90;;;;;;5049470;28;20060;-76
2022/03/13 05:17:19;;;;;;;22.38;12.70;;;4.80;99.90;;;;;;5048860;28;20148;-76
2022/03/13 05:19:44;;;;;;;24.45;12.93;;;4.70;99.90;;;;;;5054821;28;20564;-77
2022/03/13 05:22:10;;;;;;;24.05;12.10;;;5.10;99.90;;;;;;5037742;28;20037;-76
2022/03/13 05:24:36;;;;;;;36.25;13.30;;;4.70;99.90;;;;;;5048304;28;20044;-76
2022/03/13 05:27:02;;;;;;;22.38;12.88;;;4.70;99.90;;;;;;5050504;28;20045;-76
2022/03/13 05:29:28;;;;;;;23.27;12.25;;;4.60;99.90;;;;;;5068568;28;20399;-76
2022/03/13 05:31:54;;;;;;;20.02;11.30;;;4.60;99.90;;;;;;5045721;28;20047;-76
2022/03/13 05:34:19;;;;;;;19.80;10.95;;;4.60;99.90;;;;;;5071536;28;20101;-76
2022/03/13 05:36:46;;;;;;;24.58;11.80;;;4.70;99.90;;;;;;5072210;28;20044;-76
2022/03/13 05:39:12;;;;;;;25.38;11.13;;;4.70;99.90;;;;;;5056169;28;20060;-76
2022/03/13 05:41:40;;;;;;;19.80;10.85;;;4.80;99.90;;;;;;5054722;28;20044;-76
2022/03/13 05:44:09;;;;;;;24.92;11.68;;;5.00;99.90;;;;;;5056321;28;20056;-76
2022/03/13 05:46:38;;;;;;;24.10;11.45;;;4.80;99.90;;;;;;5071091;28;20044;-76
2022/03/13 05:49:05;;;;;;;20.48;10.63;;;4.80;99.90;;;;;;5043177;28;20045;-76
2022/03/13 05:51:36;;;;;;;24.27;11.48;;;5.30;99.90;;;;;;5039529;28;20539;-77
2022/03/13 05:54:05;;;;;;;24.63;11.70;;;4.80;99.90;;;;;;5072358;28;20130;-76
2022/03/13 05:56:31;;;;;;;23.38;11.75;;;4.90;99.90;;;;;;5022247;28;20059;-76
2022/03/13 05:58:57;;;;;;;24.10;11.75;;;4.90;99.90;;;;;;5044916;28;20048;-76
2022/03/13 06:01:22;;;;;;;20.45;11.13;;;4.90;99.90;;;;;;5051633;28;20092;-76
2022/03/13 06:03:48;;;;;;;22.85;12.15;;;4.90;99.90;;;;;;5034962;28;20064;-76
2022/03/13 06:06:14;;;;;;;21.20;10.98;;;4.80;99.90;;;;;;5035944;28;20490;-76
2022/03/13 06:08:40;;;;;;;22.92;11.75;;;4.90;99.90;;;;;;5050381;28;20115;-76
2022/03/13 06:11:07;;;;;;;22.13;11.55;;;4.80;99.90;;;;;;5044791;28;20529;-76
2022/03/13 06:13:32;;;;;;;;;;;4.90;99.90;;;;;;5065692;28;20052;-76
2022/03/13 06:15:58;;;;;;;26.05;12.32;;;5.30;99.90;;;;;;5054004;28;20069;-76
2022/03/13 06:18:25;;;;;;;22.13;10.82;;;4.90;99.90;;;;;;5072403;28;20048;-76
2022/03/13 06:20:52;;;;;;;27.42;12.23;;;4.90;99.90;;;;;;5071935;28;20071;-78
2022/03/13 06:23:18;;;;;;;22.50;11.18;;;4.90;99.90;;;;;;5071419;28;20052;-76
2022/03/13 06:25:43;;;;;;;25.38;12.90;;;5.10;99.90;;;;;;5055127;28;20052;-76
2022/03/13 06:28:13;;;;;;;24.30;11.32;;;5.10;99.90;;;;;;5068551;28;20053;-77
2022/03/13 06:30:39;;;;;;;21.73;10.93;;;5.30;99.90;;;;;;5047925;28;20048;-76
2022/03/13 06:33:04;;;;;;;22.20;10.60;;;5.00;99.90;;;;;;5034157;28;20251;-76
2022/03/13 06:35:32;;;;;;;22.90;11.05;;;5.00;99.90;;;;;;5033628;28;20110;-76
2022/03/13 06:37:58;;;;;;;21.40;10.65;;;5.50;99.90;;;;;;5050417;28;20053;-76
2022/03/13 06:40:25;;;;;;;22.60;10.40;;;5.10;99.90;;;;;;5052020;28;20052;-76
2022/03/13 06:42:54;;;;;;;20.92;10.35;;;5.10;99.90;;;;;;5050327;28;20049;-76
2022/03/13 06:45:20;;;;;;;21.63;10.75;;;5.10;99.90;;;;;;5033957;28;20044;-76
2022/03/13 06:47:46;;;;;;;;;;;5.30;99.90;;;;;;5051557;28;20051;-76
2022/03/13 06:50:17;;;;;;;19.92;9.63;;;5.30;99.90;;;;;;5051757;28;20372;-76
2022/03/13 06:52:44;;;;;;;19.08;9.60;;;5.30;99.90;;;;;;5048721;28;20068;-76
2022/03/13 06:55:13;;;;;;;22.13;11.23;;;5.60;99.90;;;;;;5052691;28;20041;-76
2022/03/13 06:57:40;;;;;;;19.85;10.88;;;5.30;99.90;;;;;;5058164;28;20054;-76
2022/03/13 07:00:07;;;;;;;21.45;10.15;;;5.40;99.90;;;;;;5071197;28;20052;-76
2022/03/13 07:02:32;;;;;;;20.90;11.05;;;5.50;99.90;;;;;;5065996;28;20837;-76
2022/03/13 07:04:58;;;;;;;18.15;9.73;;;5.60;99.90;;;;;;5034639;28;20087;-76
2022/03/13 07:07:24;;;;;;;20.98;10.68;;;5.80;99.90;;;;;;5055917;28;20048;-76
2022/03/13 07:09:51;;;;;;;23.70;10.57;;;5.70;99.90;;;;;;5053677;28;20052;-76
2022/03/13 07:12:18;;;;;;;17.63;9.77;;;5.70;99.90;;;;;;5068488;28;20056;-76
2022/03/13 07:14:48;;;;;;;19.58;9.82;;;5.80;99.90;;;;;;5064804;28;20106;-76
2022/03/13 07:17:17;;;;;;;20.83;9.50;;;5.80;99.90;;;;;;5070607;28;20060;-76
2022/03/13 07:19:45;;;;;;;21.92;9.88;;;5.90;99.90;;;;;;5054233;28;20059;-76
2022/03/13 07:22:12;;;;;;;16.73;9.50;;;5.90;99.90;;;;;;5070741;28;20045;-76
2022/03/13 07:24:39;;;;;;;18.67;9.63;;;6.00;99.90;;;;;;5070194;28;20040;-76
2022/03/13 07:27:05;;;;;;;21.58;10.07;;;6.00;99.90;;;;;;5057790;28;20056;-76
2022/03/13 07:29:30;;;;;;;18.00;9.30;;;6.00;99.90;;;;;;5034594;28;20417;-76
2022/03/13 07:31:56;;;;;;;16.77;9.73;;;6.00;99.90;;;;;;5049674;28;20091;-76
2022/03/13 07:34:27;;;;;;;18.27;9.93;;;6.10;99.90;;;;;;5037881;28;20788;-76
2022/03/13 07:36:54;;;;;;;20.85;10.30;;;6.20;99.90;;;;;;5053270;28;20060;-76
2022/03/13 07:39:21;;;;;;;17.40;9.32;;;6.20;99.90;;;;;;5070426;28;20051;-76
2022/03/13 07:41:47;;;;;;;19.58;9.93;;;6.30;99.90;;;;;;5062333;28;20151;-76
2022/03/13 07:44:13;;;;;;;;;;;6.50;99.90;;;;;;5070671;28;20469;-75
2022/03/13 07:46:39;;;;;;;17.70;9.25;;;6.50;99.90;;;;;;5069386;28;19964;-76
2022/03/13 07:49:04;;;;;;;21.05;9.93;;;6.50;99.90;;;;;;5070464;28;20131;-75
2022/03/13 07:51:33;;;;;;;20.17;9.00;;;6.50;99.90;;;;;;5070289;28;20052;-76
2022/03/13 07:53:59;;;;;;;19.25;9.85;;;6.60;99.90;;;;;;5062230;28;20044;-76
2022/03/13 07:56:25;;;;;;;20.10;10.43;;;6.70;99.90;;;;;;5017371;28;20568;-76
2022/03/13 07:58:50;;;;;;;20.77;10.18;;;6.70;99.90;;;;;;5048111;28;20511;-75
2022/03/13 08:01:16;;;;;;;18.63;9.90;;;6.80;99.90;;;;;;5063340;28;20045;-76
2022/03/13 08:03:44;;;;;;;18.70;9.52;;;6.90;99.90;;;;;;5035715;28;20075;-76
2022/03/13 08:06:10;;;;;;;19.00;10.20;;;6.90;99.90;;;;;;5053669;28;20056;-75
2022/03/13 08:08:36;;;;;;;18.98;9.55;;;7.10;99.90;;;;;;5069126;28;20114;-78
2022/03/13 08:11:02;;;;;;;16.95;9.50;;;7.50;99.90;;;;;;5051346;28;20056;-75
2022/03/13 08:13:28;;;;;;;17.45;9.48;;;7.20;99.90;;;;;;5032855;28;20052;-75
2022/03/13 08:15:54;;;;;;;17.15;9.10;;;7.30;99.90;;;;;;5048962;28;20055;-75
2022/03/13 08:18:20;;;;;;;26.25;10.27;;;7.30;99.90;;;;;;5067481;28;20044;-75
2022/03/13 08:20:45;;;;;;;18.45;9.18;;;7.40;99.90;;;;;;5066856;28;20505;-75
2022/03/13 08:23:11;;;;;;;19.10;9.70;;;7.60;99.90;;;;;;5052545;28;20063;-75
2022/03/13 08:25:37;;;;;;;18.40;9.57;;;7.40;99.90;;;;;;5039709;28;20048;-78
2022/03/13 08:28:03;;;;;;;19.83;9.45;;;7.50;99.80;;;;;;5048380;28;20059;-75
2022/03/13 08:30:29;;;;;;;18.10;9.93;;;7.50;99.90;;;;;;5032564;28;20080;-75
2022/03/13 08:32:55;;;;;;;18.67;8.88;;;7.50;99.20;;;;;;5033662;28;20092;-75
2022/03/13 08:35:21;;;;;;;17.48;9.27;;;7.50;98.70;;;;;;5069774;28;20152;-75
2022/03/13 08:37:47;;;;;;;17.17;9.40;;;7.50;98.30;;;;;;5050660;28;20133;-75
2022/03/13 08:40:13;;;;;;;17.98;9.48;;;7.60;97.90;;;;;;5069330;28;20493;-75
2022/03/13 08:42:38;;;;;;;;;;;7.60;97.70;;;;;;5051871;28;20052;-77
2022/03/13 08:45:05;;;;;;;21.92;9.43;;;7.70;97.40;;;;;;5051767;28;20031;-76
2022/03/13 08:47:31;;;;;;;15.95;8.25;;;7.90;97.00;;;;;;5069198;28;20059;-75
2022/03/13 08:49:57;;;;;;;16.88;9.30;;;7.90;95.40;;;;;;5068918;28;20060;-75
2022/03/13 08:52:22;;;;;;;18.17;9.80;;;8.00;94.80;;;;;;5052841;28;20045;-75
2022/03/13 08:54:49;;;;;;;16.27;9.48;;;8.00;94.60;;;;;;5051825;28;20036;-75
2022/03/13 08:57:14;;;;;;;16.98;9.05;;;8.00;94.60;;;;;;5051834;28;20103;-75
2022/03/13 08:59:41;;;;;;;18.27;9.93;;;8.20;95.20;;;;;;5048030;28;20072;-77
2022/03/13 09:02:06;;;;;;;16.08;8.80;;;8.20;94.60;;;;;;5055046;28;20044;-75
2022/03/13 09:04:32;;;;;;;19.83;9.88;;;8.30;94.30;;;;;;5069309;28;20071;-75
2022/03/13 09:06:58;;;;;;;16.48;8.90;;;8.40;93.50;;;;;;5068297;28;20048;-74
2022/03/13 09:09:24;;;;;;;17.65;8.88;;;8.40;93.30;;;;;;5067560;28;20393;-74
2022/03/13 09:11:51;;;;;;;17.27;9.25;;;8.50;93.00;;;;;;5050962;28;20084;-74
2022/03/13 09:14:17;;;;;;;16.00;8.82;;;8.60;93.20;;;;;;5032774;28;20048;-75
2022/03/13 09:16:44;;;;;;;17.13;9.10;;;8.60;92.70;;;;;;5048417;28;20080;-75
2022/03/13 09:19:10;;;;;;;17.75;9.70;;;8.80;92.00;;;;;;5049338;28;20052;-75
2022/03/13 09:21:39;;;;;;;18.67;9.25;;;8.90;91.90;;;;;;5043222;28;20037;-75
2022/03/13 09:24:09;;;;;;;17.88;10.00;;;9.00;92.00;;;;;;5028236;28;20044;-75
2022/03/13 09:26:35;;;;;;;18.48;9.95;;;9.10;91.30;;;;;;5043516;28;20561;-75
2022/03/13 09:29:02;;;;;;;16.90;9.80;;;9.10;90.60;;;;;;5067567;28;20044;-74
2022/03/13 09:31:28;;;;;;;16.00;9.10;;;9.20;89.20;;;;;;5067554;28;20076;-75
2022/03/13 09:33:54;;;;;;;19.05;9.32;;;9.30;87.50;;;;;;5049468;28;20524;-75
2022/03/13 09:36:20;;;;;;;15.85;8.73;;;9.40;86.30;;;;;;5047654;28;20085;-75
2022/03/13 09:38:46;;;;;;;20.77;10.52;;;9.50;85.30;;;;;;5046790;28;20091;-75
2022/03/13 09:41:12;;;;;;;17.13;9.15;;;9.50;85.30;;;;;;5047636;28;20452;-75
2022/03/13 09:43:39;;;;;;;14.88;9.07;;;9.60;85.80;;;;;;5046723;28;20051;-75
2022/03/13 09:46:05;;;;;;;19.27;9.63;;;9.70;84.10;;;;;;5052999;28;20119;-75
2022/03/13 09:48:34;;;;;;;;;;;9.70;83.80;;;;;;5052137;28;20048;-75
2022/03/13 09:51:04;;;;;;;17.48;9.88;;;9.80;84.20;;;;;;5063097;28;19944;-75
2022/03/13 09:53:30;;;;;;;18.33;9.52;;;9.80;84.20;;;;;;5046906;28;20044;-78
2022/03/13 09:55:56;;;;;;;18.55;9.32;;;9.90;83.60;;;;;;5030772;28;20098;-75
2022/03/13 09:58:22;;;;;;;23.30;10.23;;;9.90;82.90;;;;;;5031306;28;20178;-76
2022/03/13 10:00:48;;;;;;;19.02;9.88;;;10.00;83.30;;;;;;5047619;28;20569;-76
2022/03/13 10:03:14;;;;;;;18.95;9.30;;;10.10;82.40;;;;;;5048269;28;20064;-74
2022/03/13 10:05:45;;;;;;;18.48;9.30;;;10.20;81.30;;;;;;5032149;28;20053;-75
2022/03/13 10:08:12;;;;;;;17.70;9.10;;;10.40;81.00;;;;;;5049136;28;20057;-75
2022/03/13 10:10:49;;;;;;;17.40;9.35;;;10.60;81.40;;;;;;5039612;28;20056;-75
2022/03/13 10:13:15;;;;;;;;;;;10.70;80.30;;;;;;5046933;28;20052;-75
2022/03/13 10:15:49;;;;;;;15.97;8.63;;;10.80;78.90;;;;;;5063391;28;19921;-75
2022/03/13 10:18:17;;;;;;;17.30;8.88;;;10.90;78.40;;;;;;5047151;28;20361;-76
2022/03/13 10:20:44;;;;;;;18.95;9.27;;;10.90;77.10;;;;;;5049582;28;20478;-76
2022/03/13 10:23:20;;;;;;;19.58;9.35;;;10.90;76.20;;;;;;5052661;28;20102;-75
2022/03/13 10:25:51;;;;;;;17.80;9.45;;;10.90;75.50;;;;;;5053593;28;20056;-78
2022/03/13 10:28:24;;;;;;;17.60;8.93;;;10.90;74.00;;;;;;5036259;28;20072;-76
2022/03/13 10:30:59;;;;;;;19.80;9.27;;;10.90;74.00;;;;;;5050712;28;20041;-78
2022/03/13 10:33:43;;;;;;;17.38;9.52;;;10.90;73.40;;;;;;5057743;28;20137;-75
2022/03/13 10:36:10;;;;;;;16.55;9.60;;;11.00;72.80;;;;;;5050189;28;20079;-75
2022/03/13 10:38:37;;;;;;;15.85;8.70;;;11.10;73.00;;;;;;5049450;28;20052;-76
2022/03/13 10:41:08;;;;;;;18.45;9.88;;;11.10;73.20;;;;;;5049303;28;20454;-75
2022/03/13 10:43:37;;;;;;;21.05;10.05;;;11.20;72.30;;;;;;5047815;28;20102;-76
2022/03/13 10:46:03;;;;;;;16.25;9.18;;;11.30;71.40;;;;;;5033361;28;20053;-76
2022/03/13 10:48:36;;;;;;;17.95;8.95;;;11.40;71.70;;;;;;5034132;28;20098;-76
2022/03/13 10:51:03;;;;;;;16.20;9.82;;;11.50;70.60;;;;;;5034349;28;20060;-76
2022/03/13 10:53:30;;;;;;;17.80;9.15;;;11.60;69.50;;;;;;5052522;28;20059;-77
2022/03/13 10:56:12;;;;;;;17.10;9.98;;;11.70;68.30;;;;;;5050048;28;20045;-76
2022/03/13 10:58:40;;;;;;;17.83;9.15;;;11.80;68.70;;;;;;5056533;28;20055;-76
2022/03/13 11:01:10;;;;;;;17.63;9.63;;;11.90;69.00;;;;;;5062965;28;20040;-75
2022/03/13 11:03:47;;;;;;;16.33;8.90;;;11.90;69.70;;;;;;5044648;28;20125;-76
2022/03/13 11:06:12;;;;;;;17.27;9.30;;;11.90;67.50;;;;;;5052469;28;20052;-76
2022/03/13 11:08:40;;;;;;;15.70;9.43;;;11.90;67.20;;;;;;5062027;28;20059;-76
2022/03/13 11:11:06;;;;;;;17.48;9.75;;;12.00;67.90;;;;;;5066282;28;20062;-76
2022/03/13 11:13:34;;;;;;;20.15;9.85;;;12.10;67.90;;;;;;5050639;28;20049;-77
2022/03/13 11:16:03;;;;;;;18.52;9.23;;;12.20;67.20;;;;;;5048031;28;20036;-76
2022/03/13 11:18:35;;;;;;;16.90;9.70;;;12.30;66.70;;;;;;5052557;28;20120;-76
2022/03/13 11:21:06;;;;;;;17.13;9.77;;;12.30;66.10;;;;;;5048141;28;20469;-76
2022/03/13 11:23:33;;;;;;;18.75;9.65;;;12.40;66.50;;;;;;5064838;28;20063;-77
2022/03/13 11:25:59;;;;;;;18.33;10.18;;;12.50;65.90;;;;;;5049120;28;20530;-77
2022/03/13 11:28:28;;;;;;;16.67;9.52;;;12.60;65.20;;;;;;5057999;28;20071;-76
2022/03/13 11:30:56;;;;;;;19.77;10.35;;;12.70;64.80;;;;;;5046367;28;20047;-78
2022/03/13 11:33:41;;;;;;;18.58;10.10;;;12.70;64.80;;;;;;5050135;28;20037;-75
2022/03/13 11:36:31;;;;;;;18.00;9.45;;;12.80;64.80;;;;;;5040060;28;20059;-75
2022/03/13 11:38:57;;;;;;;17.20;9.60;;;12.90;64.40;;;;;;5049197;28;20049;-76
2022/03/13 11:41:38;;;;;;;19.15;10.15;;;13.10;64.90;;;;;;5062001;28;20048;-76
2022/03/13 11:44:21;;;;;;;16.42;8.85;;;13.20;64.40;;;;;;5045014;28;20049;-76
2022/03/13 11:46:49;;;;;;;19.20;8.80;;;13.40;63.80;;;;;;5050260;28;20046;-76
2022/03/13 11:49:20;;;;;;;17.40;9.70;;;13.60;62.90;;;;;;5062783;28;20129;-74
2022/03/13 11:51:46;;;;;;;15.75;9.50;;;13.80;62.30;;;;;;5068891;28;20059;-76
2022/03/13 11:54:15;;;;;;;19.13;10.38;;;14.00;61.80;;;;;;5065879;28;20248;-76
2022/03/13 11:56:48;;;;;;;18.20;9.13;;;14.30;61.80;;;;;;5061623;28;20126;-76
2022/03/13 11:59:19;;;;;;;18.70;10.23;;;14.60;61.50;;;;;;5062323;28;20634;-75
2022/03/13 12:01:45;;;;;;;17.80;9.75;;;14.80;61.10;;;;;;5072034;28;20107;-76
2022/03/13 12:04:11;;;;;;;16.90;10.20;;;15.00;61.20;;;;;;5022257;28;20065;-76
2022/03/13 12:06:43;;;;;;;16.33;9.85;;;15.10;59.90;;;;;;5049687;28;20056;-76
2022/03/13 12:09:16;;;;;;;17.52;10.00;;;15.40;60.00;;;;;;5049230;28;20044;-76
2022/03/13 12:11:46;;;;;;;20.38;10.30;;;15.60;59.50;;;;;;5049192;28;20405;-76
2022/03/13 12:14:14;;;;;;;18.08;10.13;;;15.90;60.00;;;;;;5063765;28;20049;-76
2022/03/13 12:16:42;;;;;;;18.83;10.38;;;16.20;60.00;;;;;;5069392;28;20110;-76
2022/03/13 12:19:09;;;;;;;17.60;10.88;;;16.40;60.30;;;;;;5052972;28;20040;-76
2022/03/13 12:21:35;;;;;;;18.52;10.95;;;16.70;59.10;;;;;;5066004;28;20049;-75
2022/03/13 12:24:13;;;;;;;;;;;16.90;58.30;;;;;;5048802;28;20413;-76
2022/03/13 12:26:39;;;;;;;18.85;10.80;;;17.00;57.50;;;;;;5055162;28;19928;-77
2022/03/13 12:29:07;;;;;;;18.98;10.40;;;17.10;57.30;;;;;;5048657;28;20060;-76
2022/03/13 12:31:48;;;;;;;16.67;10.48;;;17.20;56.20;;;;;;5068695;28;20056;-77
2022/03/13 12:34:26;;;;;;;17.17;10.15;;;17.40;55.30;;;;;;5069076;28;20049;-77
2022/03/13 12:37:00;;;;;;;16.35;10.50;;;17.50;52.50;;;;;;5069282;28;20494;-76
2022/03/13 12:39:27;;;;;;;16.80;10.15;;;17.60;53.50;;;;;;5053729;28;20048;-76
2022/03/13 12:42:04;;;;;;;19.33;11.15;;;17.80;53.50;;;;;;5055311;28;20052;-77
2022/03/13 12:44:31;;;;;;;14.15;9.63;;;18.00;51.90;;;;;;5048865;28;20397;-77